Noroton Heights, Connecticut
Current Conditions -  °F | °C
As of 6:56 PM on Friday 21 Nov 2014 (Local Time) from KHPN Reporting Station
Clear Clear  
Wind Chill: 18°   Ceiling: Unl
Heat Index: 30°   Visibility: 10mi
Dew Point:   Wind: 18mph
Humidity: 40%   Direction: 300°WNW
Pressure: 30.43"   Gusts: NA
Location:  41.0804°N, 73.4823°W
Report Text: KHPN 212356Z 30016KT 10SM CLR M01/M13 A3043 RMK AO2 SLP316 T10111133 10017 21017 51038
Loading
Personal Weather Stations






























Interactive Weather Map New forecast layout! Learn more

10-Day Weather Forecast

Advertisements
Track Severe Weather on mobile